Latest Coastal Weather Observations for Kowanyama

IDQ60701

Issued at 1:42 am EST Friday 5 March 2021 (issued every 10 minutes, with the page automatically refreshed every 10 minutes)

About coastal observations | Map of coastal stations | Coastal observations for QLD | Marine services | Other Formats
Station Details ID: 029038 Name: KOWANYAMA AIRPORT Lat: -15.48 Lon: 141.75 Height: 9.6 m
Data from the previous 72 hours. | See also: Recent months at Kowanyama
Date/Time
EST
Wind Sea
Height
m
Swell Vis
km
Cloud Weather Temp
°C
Press
MSL
hPa
Rain since
9am
mm
Dir  Spd
kts
Gust
kts
Height
m
Period
s
Dir
05/01:30am N 4 5 - - - - 10 Clear - 26.1 1004.7 0.0
05/01:00am N 3 4 - - - - 10 - - 26.2 1004.8 0.0
05/12:30am N 3 4 - - - - 10 - - 26.3 1005.0 0.0
05/12:00am N 1 3 - - - - 10 - - 26.7 1005.2 0.0
 
Date/Time
EST
Wind Sea
Height
m
Swell Vis
km
Cloud Weather Temp
°C
Press
MSL
hPa
Rain since
9am
mm
Dir  Spd
kts
Gust
kts
Height
m
Period
s
Dir
04/11:30pm N 3 5 - - - - 10 - - 26.7 1005.3 0.0
04/11:00pm NNW 4 6 - - - - 10 - - 27.1 1005.5 0.0
04/10:30pm NNW 4 6 - - - - 10 - - 27.2 1005.7 0.0
04/10:00pm N 3 5 - - - - 10 - - 27.2 1005.7 0.0
04/09:30pm N 4 5 - - - - 10 - - 27.3 1005.5 0.0
04/09:00pm NW 4 5 - - - - 10 - - 27.9 1005.1 0.0
04/08:30pm N 5 8 - - - - 10 - - 28.0 1004.6 0.0
04/08:00pm NW 4 5 - - - - 10 - - 28.6 1004.1 0.0
04/07:30pm NNW 5 7 - - - - 10 - - 29.2 1003.6 0.0
04/07:00pm W 4 5 - - - - 10 - - 30.6 1003.2 0.0
04/06:30pm CALM 0 0 - - - - 10 - - 33.8 1002.6 0.0
04/06:00pm SSW 4 5 - - - - 10 - - 35.0 1002.3 0.0
04/05:30pm SSW 5 7 - - - - 10 - - 35.4 1002.1 0.0
04/05:00pm SSW 3 6 - - - - 10 - - 36.1 1001.8 0.0
04/04:30pm SSW 6 11 - - - - 10 - - 35.8 1001.6 0.0
04/04:00pm SSW 7 10 - - - - 10 - - 36.1 1001.8 0.0
04/03:30pm S 8 11 - - - - 10 - - 36.2 1001.8 0.0
04/03:00pm S 6 11 - - - - 10 - - 36.4 1002.1 0.0
04/02:30pm S 8 10 - - - - 10 - - 36.5 1002.4 0.0
04/02:00pm SW 7 11 - - - - 10 - - 36.2 1002.9 0.0
04/01:30pm S 7 10 - - - - 10 - - 36.4 1003.3 0.0
04/01:00pm SW 6 8 - - - - 10 - - 35.8 1003.7 0.0
04/12:30pm WSW 6 9 - - - - 10 - - 35.0 1004.2 0.0
04/12:00pm WSW 7 10 - - - - 10 - - 34.5 1004.8 0.0
04/11:30am WSW 6 9 - - - - 10 - - 34.0 1005.1 0.0
04/11:00am W 6 9 - - - - 10 - - 33.7 1005.2 0.0
04/10:30am WSW 6 8 - - - - 10 - - 33.3 1005.6 0.0
04/10:00am SW 7 11 - - - - 10 Partly cloudy - 32.8 1005.9 0.0
04/09:30am WNW 5 7 - - - - 10 - - 31.5 1005.9 0.0
04/09:07am NW 4 6 - - - - 10 Partly cloudy - 30.2 1005.8 0.0
04/09:00am NNW 4 6 - - - - 10 Mostly clear - 29.6 1005.8 0.0
04/08:30am NNW 4 6 - - - - 10 Cloudy - 28.7 1005.6 0.0
04/08:01am N 5 7 - - - - 7 Cloudy - 27.8 1005.2 0.0
04/08:00am N 5 7 - - - - 7 Cloudy - 27.9 1005.2 0.0
04/07:30am N 5 6 - - - - 2 Cloudy - 27.4 1004.8 0.0
04/07:00am N 5 7 - - - - 4 Cloudy - 27.4 1004.6 0.0
04/06:30am N 4 6 - - - - 1 Cloudy - 27.3 1004.3 0.0
04/06:00am N 3 5 - - - - 1 Mostly cloudy - 27.1 1004.0 0.0
04/05:39am N 3 5 - - - - 5 Cloudy - 27.0 1003.7 0.0
04/05:30am N 1 4 - - - - 10 Partly cloudy - 27.0 1003.6 0.0
04/05:20am N 3 5 - - - - 10 Partly cloudy - 27.0 1003.4 0.0
04/05:00am NNW 3 4 - - - - 10 - - 26.9 1003.1 0.0
04/04:30am N 5 6 - - - - 10 - - 27.0 1002.6 0.0
04/04:00am N 3 5 - - - - 10 - - 26.8 1002.7 0.0
04/03:30am N 4 5 - - - - 10 - - 26.8 1002.7 0.0
04/03:00am N 4 5 - - - - 10 - - 26.8 1002.8 0.0
04/02:30am NNW 3 4 - - - - 10 - - 27.1 1002.7 0.0
04/02:00am WNW 4 4 - - - - 10 - - 27.5 1002.9 0.0
04/01:30am WNW 4 5 - - - - 10 - - 27.6 1003.1 0.0
04/01:00am WNW 4 5 - - - - 10 - - 27.6 1003.4 0.0
04/12:30am CALM 0 0 - - - - 10 Partly cloudy - 27.8 1003.8 0.0
04/12:00am CALM 0 3 - - - - 10 Cloudy - 27.9 1004.2 0.0
 
Date/Time
EST
Wind Sea
Height
m
Swell Vis
km
Cloud Weather Temp
°C
Press
MSL
hPa
Rain since
9am
mm
Dir  Spd
kts
Gust
kts
Height
m
Period
s
Dir
03/11:30pm WNW 2 3 - - - - 10 - - 27.7 1004.5 0.0
03/11:00pm WNW 3 3 - - - - 10 - - 27.8 1004.5 0.0
03/10:30pm WNW 3 3 - - - - 10 - - 28.2 1004.5 0.0
03/10:00pm WNW 2 4 - - - - 10 - - 28.4 1004.5 0.0
03/09:30pm W 3 4 - - - - 10 - - 28.6 1004.4 0.0
03/09:00pm W 3 5 - - - - 10 - - 28.8 1004.2 0.0
03/08:30pm W 3 4 - - - - 10 - - 29.1 1004.0 0.0
03/08:00pm WSW 4 5 - - - - 10 - - 29.3 1003.6 0.0
03/07:30pm W 5 5 - - - - 10 - - 29.4 1003.3 0.0
03/07:00pm W 5 6 - - - - 10 - - 30.0 1002.9 0.0
03/06:30pm W 6 7 - - - - 10 - - 30.6 1002.5 0.0
03/06:00pm WNW 6 8 - - - - 10 - - 31.4 1002.1 0.0
03/05:30pm SSE 4 6 - - - - 10 - - 33.7 1001.9 0.0
03/05:00pm SE 6 9 - - - - 10 - - 34.4 1001.7 0.0
03/04:30pm SE 7 8 - - - - 10 Partly cloudy - 34.2 1001.8 0.0
03/04:00pm SE 7 8 - - - - 10 Partly cloudy - 34.4 1001.9 0.0
03/03:30pm SE 8 11 - - - - 10 - - 35.2 1001.8 0.0
03/03:00pm SSE 12 16 - - - - 10 - - 35.4 1001.5 0.0
03/02:30pm SSE 9 14 - - - - 10 Partly cloudy - 36.1 1001.7 0.0
03/02:00pm S 8 13 - - - - 10 - - 35.1 1002.4 0.0
03/01:30pm SSE 10 15 - - - - 10 Partly cloudy - 35.2 1003.1 0.0
03/01:00pm SSW 8 13 - - - - 10 - - 34.1 1003.6 0.0
03/12:30pm SSW 6 10 - - - - 10 - - 34.7 1004.1 0.0
03/12:00pm S 7 10 - - - - 10 Partly cloudy - 34.3 1004.6 0.0
03/11:30am WSW 8 11 - - - - 10 Partly cloudy - 33.5 1005.1 0.0
03/11:00am WSW 9 13 - - - - 10 Partly cloudy - 32.9 1005.5 0.0
03/10:30am SW 7 11 - - - - 10 Partly cloudy - 32.9 1005.9 0.0
03/10:00am SW 9 13 - - - - 10 - - 32.2 1006.0 0.0
03/09:30am WSW 8 12 - - - - 10 - - 31.0 1006.2 0.0
03/09:00am WSW 8 11 - - - - 10 Partly cloudy - 30.7 1006.2 10.0
03/08:30am WSW 5 7 - - - - 10 Partly cloudy - 29.9 1006.1 10.0
03/08:00am W 4 5 - - - - 10 - - 28.6 1005.9 10.0
03/07:30am CALM 0 0 - - - - 10 - - 27.6 1005.4 10.0
03/07:00am CALM 0 0 - - - - 10 - - 26.6 1005.1 10.0
03/06:30am CALM 0 0 - - - - 10 - - 26.4 1004.9 10.0
03/06:00am CALM 0 0 - - - - 10 - - 26.5 1004.5 10.0
03/05:30am CALM 0 0 - - - - 10 - - 26.7 1004.2 10.0
03/05:00am CALM 0 0 - - - - 10 - - 26.9 1004.0 10.0
03/04:30am CALM 0 0 - - - - 10 - - 26.7 1003.6 10.0
03/04:00am WNW 3 3 - - - - 10 - - 26.7 1003.4 10.0
03/03:30am CALM 0 0 - - - - 10 Partly cloudy - 26.9 1003.4 10.0
03/03:00am NW 3 4 - - - - 10 Cloudy - 27.1 1003.6 10.0
03/02:30am NW 3 4 - - - - 10 Partly cloudy - 27.2 1003.7 10.0
03/02:00am WNW 4 5 - - - - 10 - - 27.1 1003.8 10.0
03/01:30am WNW 5 7 - - - - 10 - - 27.0 1003.8 10.0
03/01:00am NW 4 5 - - - - 10 - - 26.9 1004.0 10.0
03/12:30am NNW 4 5 - - - - 10 - - 27.0 1004.2 10.0
03/12:00am NW 4 5 - - - - 10 - - 27.3 1004.4 10.0
 
Date/Time
EST
Wind Sea
Height
m
Swell Vis
km
Cloud Weather Temp
°C
Press
MSL
hPa
Rain since
9am
mm
Dir  Spd
kts
Gust
kts
Height
m
Period
s
Dir
02/11:30pm WNW 4 5 - - - - 10 - - 27.3 1004.9 10.0
02/11:00pm NW 3 4 - - - - 10 - - 27.4 1005.0 10.0
02/10:30pm W 4 4 - - - - 10 - - 27.7 1005.0 10.0
02/10:00pm W 5 7 - - - - 10 - - 27.8 1004.7 10.0
02/09:30pm W 5 6 - - - - 10 - - 27.9 1004.4 10.0
02/09:00pm WNW 4 6 - - - - 10 Mostly clear - 28.1 1004.5 10.0
02/08:30pm WNW 3 5 - - - - 10 - - 28.5 1004.6 10.0
02/08:00pm WNW 3 4 - - - - 10 Partly cloudy - 28.6 1004.3 10.0
02/07:30pm WNW 5 6 - - - - 10 Partly cloudy - 28.9 1003.9 10.0
02/07:00pm W 5 6 - - - - 10 - - 29.3 1003.5 10.0
02/06:30pm W 5 8 - - - - 10 - - 30.2 1003.2 10.0
02/06:00pm W 6 9 - - - - 10 Mostly clear - 30.8 1002.8 10.0
02/05:30pm W 6 8 - - - - 10 Partly cloudy - 31.8 1002.5 10.0
02/05:00pm WSW 7 9 - - - - 10 Partly cloudy - 32.5 1002.3 10.0
02/04:30pm WSW 7 10 - - - - 10 Partly cloudy - 34.2 1002.2 10.0
02/04:00pm SW 8 11 - - - - 10 Partly cloudy - 33.4 1002.2 10.0
02/03:30pm WSW 6 8 - - - - 10 Partly cloudy - 33.1 1002.4 10.0
02/03:00pm WSW 7 10 - - - - 10 - - 33.3 1002.7 10.0
02/02:30pm SW 8 11 - - - - 10 Partly cloudy - 33.2 1003.0 10.0
02/02:00pm WSW 7 13 - - - - 10 Partly cloudy - 33.2 1003.4 10.0
02/01:30pm SSW 8 11 - - - - 10 Partly cloudy - 32.7 1003.7 10.0
02/01:00pm SW 6 9 - - - - 10 - - 31.9 1004.2 10.0
02/12:30pm SSW 9 11 - - - - 10 Partly cloudy - 31.1 1004.6 10.0
02/12:00pm SW 8 11 - - - - 10 Mostly clear - 30.6 1005.4 10.0
02/11:30am SW 5 7 - - - - 10 - - 30.1 1005.9 10.0
02/11:00am WSW 3 5 - - - - 10 - - 29.1 1006.5 10.0
02/10:30am SW 3 5 - - - - 10 - - 27.3 1006.6 10.0
02/10:00am SW 5 7 - - - - 10 - - 25.4 1006.5 10.0
02/09:42am SW 7 11 - - - - 10 Partly cloudy - 24.5 1006.7 10.0
02/09:30am WSW 9 19 - - - - 2 Partly cloudy - 23.4 1006.9 10.0
02/09:16am SSE 19 29 - - - - 2 Partly cloudy - 23.0 1007.7 4.6
02/09:12am SSE 21 29 - - - - 5 Partly cloudy - 23.2 1007.1 2.6
02/09:06am SE 19 27 - - - - 10 Partly cloudy - 24.7 1007.1 0.0
02/09:02am SE 16 27 - - - - 10 Partly cloudy - 25.6 1007.1 0.0
02/09:00am SE 14 23 - - - - 10 Cloudy - 25.9 1007.2 0.0
02/08:53am SE 13 18 - - - - 10 Partly cloudy - 26.3 1006.9 0.0
02/08:30am S 1 4 - - - - 10 - - 28.4 1006.4 0.0
02/08:00am WSW 2 4 - - - - 10 - - 28.1 1006.0 0.0
02/07:30am WNW 3 4 - - - - 10 - - 27.7 1005.4 0.0
02/07:00am W 3 4 - - - - 10 - - 27.3 1005.1 0.0
02/06:30am W 4 5 - - - - 10 - - 27.2 1004.8 0.0
02/06:00am WNW 5 5 - - - - 10 - - 27.2 1004.7 0.0
02/05:30am WNW 4 5 - - - - 10 - - 27.2 1004.6 0.0
02/05:00am WNW 3 4 - - - - 10 - - 27.3 1004.3 0.0
02/04:30am WNW 4 5 - - - - 10 - - 27.2 1004.2 0.0
02/04:00am WNW 3 4 - - - - 10 - - 27.2 1004.3 0.0
02/03:30am W 4 5 - - - - 10 - - 27.2 1004.2 0.0
02/03:00am WNW 3 4 - - - - 10 - - 27.1 1004.3 0.0
02/02:30am WNW 4 4 - - - - 10 - - 27.0 1004.4 0.0
02/02:00am WNW 4 5 - - - - 10 - - 26.8 1004.4 0.0

Other formats

Comma delimited format used in spreadsheet applications
http://www.bom.gov.au/fwo/IDQ60701/IDQ60701.94268.axf

JavaScript Object Notation format (JSON) in row-major order
http://www.bom.gov.au/fwo/IDQ60701/IDQ60701.94268.json

Data quality

Most of these data are generated automatically and are frequently updated. Quality checks on data are not normally performed. It is possible for incorrect values to appear. Refer to information at About Latest Weather Observations and please check the disclaimer before using these data.